LTAU/ASR METAR and TAF weather

Enter ICAO airport designator
Station Type Date Time Source
LTAU METAR 2022/11/30 11:20 UTC NOAA

LTAU 301120Z 09009KT 9999 SCT040 SCT100 15/05 Q1016 NOSIG


Station Type Date Time Source
LTAU Decoded METAR 2022/11/30 11:20 UTC NOAA

Kayseri / Erkilet, Turkey (LTAU) 38-47N 035-29E 1054M
Nov 30, 2022 - 06:20 AM EST / 2022.11.30 1120 UTC
Wind: from the E (090 degrees) at 10 MPH (9 KT):0
Visibility: greater than 7 mile(s):0
Sky conditions: partly cloudy
Temperature: 59 F (15 C)
Dew Point: 41 F (5 C)
Relative Humidity: 51%
Pressure (altimeter): 30.00 in. Hg (1016 hPa)
ob: LTAU 301120Z 09009KT 9999 SCT040 SCT100 15/05 Q1016 NOSIG
cycle: 11

Station Type Date Time Source
LTAU TAF 2022/11/30 12:03 UTC NOAA

TAF LTAU 301040Z 3012/0112 08008KT 9999 SCT040 SCT100 PROB40 3015/3019 4000 BR PROB40 0102/0106 4000 BR

Example: see airport list